Time;durP1;ratioP1;P1;durP2;ratioP2;P2;SDS_P1;SDS_P2;PMS_P1;PMS_P2;Temp;Humidity;BMP_temperature;BMP_pressure;BME280_temperature;BME280_humidity;BME280_pressure;Samples;Min_cycle;Max_cycle;Signal;HPM_P1;HPM_P2
2023/09/03 00:00:02;;;;;;;2.40;2.20;;;25.10;52.80;;;;;;5052979;28;20438;-78
2023/09/03 00:02:30;;;;;;;5.77;5.17;;;25.10;52.90;;;;;;5053165;28;20474;-78
2023/09/03 00:04:58;;;;;;;4.00;3.70;;;25.00;52.80;;;;;;5052932;28;20498;-78
2023/09/03 00:07:27;;;;;;;3.70;3.40;;;25.10;52.80;;;;;;5052540;28;20896;-78
2023/09/03 00:09:56;;;;;;;3.07;2.87;;;25.00;52.90;;;;;;5053061;28;20413;-78
2023/09/03 00:12:24;;;;;;;3.40;3.20;;;25.00;53.00;;;;;;5053000;28;20525;-78
2023/09/03 00:14:52;;;;;;;2.70;2.60;;;25.00;53.00;;;;;;5052826;28;20441;-78
2023/09/03 00:17:20;;;;;;;3.17;2.90;;;25.00;53.00;;;;;;5052848;28;20492;-78
2023/09/03 00:19:48;;;;;;;2.87;2.70;;;25.00;53.10;;;;;;5052355;28;20440;-78
2023/09/03 00:22:16;;;;;;;3.47;3.17;;;24.90;52.90;;;;;;5052075;28;20446;-78
2023/09/03 00:24:44;;;;;;;3.00;2.80;;;24.90;53.10;;;;;;5052252;28;20480;-78
2023/09/03 00:27:13;;;;;;;3.47;3.27;;;24.90;53.00;;;;;;5052290;28;20439;-79
2023/09/03 00:29:42;;;;;;;2.80;2.60;;;24.80;53.00;;;;;;5052175;28;20469;-77
2023/09/03 00:32:10;;;;;;;3.30;3.00;;;24.80;53.10;;;;;;5052957;28;20410;-76
2023/09/03 00:34:38;;;;;;;2.87;2.77;;;24.80;52.90;;;;;;5052234;28;20504;-77
2023/09/03 00:37:05;;;;;;;2.83;2.70;;;24.80;53.10;;;;;;5052629;28;20607;-78
2023/09/03 00:39:34;;;;;;;2.70;2.60;;;24.80;53.30;;;;;;5052896;28;20463;-78
2023/09/03 00:42:02;;;;;;;3.43;3.20;;;24.70;53.10;;;;;;5052371;28;20427;-78
2023/09/03 00:44:32;;;;;;;2.20;2.10;;;24.70;53.30;;;;;;5052091;28;20565;-79
2023/09/03 00:47:00;;;;;;;2.40;2.30;;;24.70;53.20;;;;;;5052433;28;20506;-77
2023/09/03 00:49:28;;;;;;;2.70;2.60;;;24.70;53.30;;;;;;5051915;28;20501;-78
2023/09/03 00:51:56;;;;;;;3.10;2.90;;;24.60;53.20;;;;;;5051054;28;20470;-78
2023/09/03 00:54:25;;;;;;;2.83;2.70;;;24.60;53.30;;;;;;5051797;28;20504;-78
2023/09/03 00:56:53;;;;;;;2.77;2.57;;;24.60;53.30;;;;;;5051663;28;20470;-78
2023/09/03 00:59:22;;;;;;;3.10;2.80;;;24.60;53.40;;;;;;5051213;28;20449;-78
2023/09/03 01:01:51;;;;;;;2.50;2.40;;;24.60;53.10;;;;;;5051977;28;20470;-78
2023/09/03 01:04:20;;;;;;;2.43;2.33;;;24.60;53.10;;;;;;5051640;28;20470;-77
2023/09/03 01:06:49;;;;;;;2.60;2.50;;;24.50;53.20;;;;;;5051330;28;20458;-77
2023/09/03 01:09:18;;;;;;;2.60;2.50;;;24.50;53.40;;;;;;5051675;28;20476;-75
2023/09/03 01:11:50;;;;;;;2.73;2.63;;;24.50;53.30;;;;;;5051332;28;20466;-76
2023/09/03 01:14:25;;;;;;;2.10;2.00;;;24.50;53.30;;;;;;5051646;28;20556;-78
2023/09/03 01:16:56;;;;;;;2.47;2.37;;;24.50;53.30;;;;;;5051342;28;20427;-78
2023/09/03 01:19:44;;;;;;;2.57;2.47;;;24.50;53.40;;;;;;5050805;28;20526;-78
2023/09/03 01:22:17;;;;;;;2.90;2.70;;;24.50;53.30;;;;;;5051112;28;20442;-79
2023/09/03 01:24:53;;;;;;;2.63;2.50;;;24.50;53.30;;;;;;5050764;28;20470;-78
2023/09/03 01:27:25;;;;;;;2.60;2.50;;;24.50;53.40;;;;;;5051030;28;20496;-78
2023/09/03 01:29:55;;;;;;;2.33;2.23;;;24.40;53.20;;;;;;5051201;28;20517;-78
2023/09/03 01:32:23;;;;;;;2.43;2.30;;;24.40;53.30;;;;;;5051128;28;20533;-78
2023/09/03 01:34:51;;;;;;;2.53;2.43;;;24.40;53.30;;;;;;5050779;28;20526;-79
2023/09/03 01:37:18;;;;;;;2.60;2.50;;;24.40;53.30;;;;;;5050689;28;20438;-77
2023/09/03 01:39:47;;;;;;;2.63;2.53;;;24.40;53.50;;;;;;5050990;28;20441;-79
2023/09/03 01:42:14;;;;;;;3.27;3.07;;;24.40;53.40;;;;;;5051435;28;20470;-78
2023/09/03 01:44:42;;;;;;;2.37;2.27;;;24.40;53.30;;;;;;5050531;28;20801;-78
2023/09/03 01:47:18;;;;;;;2.90;2.77;;;24.30;53.40;;;;;;5050502;28;20485;-77
2023/09/03 01:49:50;;;;;;;2.87;2.67;;;24.30;53.30;;;;;;5050592;28;20458;-78
2023/09/03 01:52:22;;;;;;;2.47;2.37;;;24.30;53.30;;;;;;5050959;28;20523;-78
2023/09/03 01:54:50;;;;;;;2.70;2.50;;;24.30;53.40;;;;;;5051539;28;20437;-78
2023/09/03 01:57:19;;;;;;;3.83;2.70;;;24.30;53.40;;;;;;5050488;28;20533;-79
2023/09/03 01:59:50;;;;;;;2.80;2.70;;;24.30;53.40;;;;;;5050903;28;20477;-78
2023/09/03 02:02:19;;;;;;;3.60;2.80;;;24.20;53.30;;;;;;5051208;28;20529;-79
2023/09/03 02:04:50;;;;;;;2.77;2.67;;;24.30;53.50;;;;;;5055418;28;20454;-80
2023/09/03 02:07:19;;;;;;;3.30;3.10;;;24.30;53.30;;;;;;5055469;28;20442;-78
2023/09/03 02:09:47;;;;;;;18.73;13.07;;;24.30;53.30;;;;;;5055274;28;20478;-78
2023/09/03 02:12:16;;;;;;;17.23;12.70;;;24.20;53.60;;;;;;5056671;28;20477;-78
2023/09/03 02:14:45;;;;;;;21.43;15.90;;;24.20;53.40;;;;;;5054996;28;20468;-78
2023/09/03 02:17:19;;;;;;;19.10;13.40;;;24.20;53.50;;;;;;5055986;28;20513;-78
2023/09/03 02:19:49;;;;;;;23.40;16.23;;;24.20;53.50;;;;;;5054831;28;20490;-77
2023/09/03 02:22:17;;;;;;;20.97;15.50;;;24.20;53.50;;;;;;5054570;28;20435;-77
2023/09/03 02:24:45;;;;;;;21.60;15.07;;;24.20;53.40;;;;;;5054780;28;20537;-78
2023/09/03 02:27:13;;;;;;;17.57;13.70;;;24.10;53.50;;;;;;5054160;28;20802;-78
2023/09/03 02:29:41;;;;;;;23.30;15.67;;;24.10;53.40;;;;;;5054273;28;20553;-78
2023/09/03 02:32:09;;;;;;;22.90;16.23;;;24.20;53.60;;;;;;5054513;28;20430;-78
2023/09/03 02:34:37;;;;;;;23.60;16.93;;;24.10;53.40;;;;;;5054256;28;20444;-78
2023/09/03 02:37:06;;;;;;;22.13;16.13;;;24.20;53.40;;;;;;5054708;28;20442;-79
2023/09/03 02:39:34;;;;;;;21.77;14.90;;;24.20;53.70;;;;;;5053919;28;20556;-78
2023/09/03 02:42:02;;;;;;;23.47;16.10;;;24.20;53.40;;;;;;5054696;28;20469;-79
2023/09/03 02:44:31;;;;;;;20.13;15.03;;;24.20;53.50;;;;;;5054347;28;20430;-77
2023/09/03 02:46:58;;;;;;;21.03;15.47;;;24.20;53.40;;;;;;5054595;28;20453;-79
2023/09/03 02:49:26;;;;;;;21.80;16.30;;;24.10;53.40;;;;;;5054713;28;20441;-77
2023/09/03 02:51:55;;;;;;;23.07;16.20;;;24.10;53.60;;;;;;5054799;28;20549;-77
2023/09/03 02:54:24;;;;;;;21.27;15.87;;;24.10;53.50;;;;;;5055607;28;20484;-78
2023/09/03 02:56:52;;;;;;;20.57;15.47;;;24.10;53.40;;;;;;5054910;28;20470;-78
2023/09/03 02:59:20;;;;;;;20.20;15.30;;;24.10;53.40;;;;;;5054970;28;20430;-78
2023/09/03 03:01:47;;;;;;;20.33;15.60;;;24.10;53.60;;;;;;5055748;28;20438;-78
2023/09/03 03:04:16;;;;;;;19.10;14.60;;;24.00;53.50;;;;;;5054433;28;20413;-76
2023/09/03 03:06:43;;;;;;;19.33;14.40;;;24.00;53.60;;;;;;5054437;28;20506;-77
2023/09/03 03:09:11;;;;;;;19.30;14.40;;;24.00;53.60;;;;;;5053914;28;20501;-78
2023/09/03 03:11:40;;;;;;;20.57;15.10;;;24.00;53.80;;;;;;5053387;28;20443;-79
2023/09/03 03:14:08;;;;;;;22.83;15.57;;;24.00;53.70;;;;;;5052885;28;20443;-79
2023/09/03 03:16:36;;;;;;;18.63;13.87;;;24.00;53.50;;;;;;5052413;28;20409;-79
2023/09/03 03:19:04;;;;;;;21.20;14.70;;;24.00;53.60;;;;;;5052875;28;20536;-76
2023/09/03 03:21:33;;;;;;;15.10;12.23;;;23.90;53.50;;;;;;5053193;28;20442;-77
2023/09/03 03:24:01;;;;;;;18.23;13.93;;;23.90;53.70;;;;;;5053193;28;20508;-78
2023/09/03 03:26:31;;;;;;;18.67;14.13;;;24.00;53.50;;;;;;5053025;28;20471;-78
2023/09/03 03:29:00;;;;;;;17.10;13.23;;;23.90;53.60;;;;;;5053020;28;20470;-79
2023/09/03 03:31:28;;;;;;;18.07;13.20;;;23.90;53.60;;;;;;5052756;28;20450;-78
2023/09/03 03:33:57;;;;;;;18.17;13.20;;;23.90;53.70;;;;;;5052872;28;20541;-78
2023/09/03 03:36:25;;;;;;;18.07;13.23;;;23.90;53.70;;;;;;5052779;28;20439;-78
2023/09/03 03:38:53;;;;;;;17.60;13.23;;;23.80;53.60;;;;;;5052537;28;20503;-78
2023/09/03 03:41:22;;;;;;;16.30;12.80;;;23.80;53.80;;;;;;5052315;28;20457;-79
2023/09/03 03:43:50;;;;;;;15.77;12.13;;;23.80;53.70;;;;;;5052855;28;20467;-78
2023/09/03 03:46:21;;;;;;;15.40;11.70;;;23.80;53.60;;;;;;5052896;28;20474;-80
2023/09/03 03:48:49;;;;;;;17.67;12.40;;;23.80;53.70;;;;;;5052893;28;20470;-78
2023/09/03 03:51:17;;;;;;;15.50;11.80;;;23.80;53.80;;;;;;5052844;28;20489;-79
2023/09/03 03:53:46;;;;;;;16.40;11.73;;;23.80;53.90;;;;;;5052682;28;20473;-79
2023/09/03 03:56:14;;;;;;;13.17;10.87;;;23.80;53.80;;;;;;5052659;28;20458;-79
2023/09/03 03:58:43;;;;;;;14.03;10.73;;;23.80;53.80;;;;;;5052780;28;20465;-79
2023/09/03 04:01:11;;;;;;;14.67;10.90;;;23.80;53.80;;;;;;5052713;28;20426;-79
2023/09/03 04:03:41;;;;;;;14.50;10.50;;;23.70;53.70;;;;;;5052260;28;20492;-78
2023/09/03 04:06:09;;;;;;;11.70;10.10;;;23.70;53.80;;;;;;5052419;28;20478;-77
2023/09/03 04:08:38;;;;;;;12.27;9.77;;;23.70;53.80;;;;;;5051949;28;20466;-78
2023/09/03 04:11:07;;;;;;;14.70;10.70;;;23.70;53.70;;;;;;5052162;28;20530;-77
2023/09/03 04:13:36;;;;;;;13.20;10.20;;;23.70;53.90;;;;;;5052622;28;20534;-78
2023/09/03 04:16:06;;;;;;;13.60;10.53;;;23.70;53.90;;;;;;5052436;28;20471;-79
2023/09/03 04:18:34;;;;;;;11.40;9.13;;;23.70;54.00;;;;;;5052268;28;20490;-78
2023/09/03 04:21:04;;;;;;;11.30;9.50;;;23.60;53.80;;;;;;5051811;28;20434;-79
2023/09/03 04:23:32;;;;;;;11.90;9.67;;;23.60;53.70;;;;;;5051598;28;20413;-79
2023/09/03 04:26:00;;;;;;;13.07;9.50;;;23.60;53.90;;;;;;5051835;28;20457;-79
2023/09/03 04:28:28;;;;;;;10.90;9.20;;;23.60;53.90;;;;;;5051865;28;20981;-78
2023/09/03 04:30:56;;;;;;;12.30;9.73;;;23.60;53.80;;;;;;5052234;28;20475;-78
2023/09/03 04:33:24;;;;;;;12.00;8.87;;;23.60;54.00;;;;;;5052863;28;20434;-76
2023/09/03 04:35:55;;;;;;;10.77;8.80;;;23.60;54.00;;;;;;5052737;28;20443;-78
2023/09/03 04:38:24;;;;;;;11.50;9.30;;;23.60;53.90;;;;;;5052457;28;20494;-78
2023/09/03 04:40:52;;;;;;;12.07;8.90;;;23.60;54.00;;;;;;5052474;28;20477;-78
2023/09/03 04:43:21;;;;;;;10.47;8.93;;;23.60;53.90;;;;;;5052411;28;20810;-77
2023/09/03 04:45:50;;;;;;;10.40;8.37;;;23.60;54.00;;;;;;5052194;28;20500;-78
2023/09/03 04:48:18;;;;;;;10.10;8.30;;;23.60;53.90;;;;;;5051975;28;20485;-77
2023/09/03 04:50:47;;;;;;;9.53;7.63;;;23.70;54.00;;;;;;5052504;28;20480;-77
2023/09/03 04:53:15;;;;;;;10.27;8.67;;;23.60;53.90;;;;;;5052077;28;20485;-77
2023/09/03 04:55:45;;;;;;;12.17;8.30;;;23.60;53.90;;;;;;5051272;28;20539;-78
2023/09/03 04:58:13;;;;;;;8.80;7.83;;;23.50;53.80;;;;;;5051454;28;20466;-78
2023/09/03 05:00:41;;;;;;;8.87;7.67;;;23.50;53.90;;;;;;5051063;28;20454;-78
2023/09/03 05:03:11;;;;;;;11.03;8.70;;;23.50;53.80;;;;;;5051580;28;20470;-78
2023/09/03 05:05:40;;;;;;;10.03;7.93;;;23.50;54.10;;;;;;5051855;28;20447;-81
2023/09/03 05:08:09;;;;;;;9.30;7.73;;;23.50;54.00;;;;;;5053569;28;20536;-80
2023/09/03 05:10:37;;;;;;;8.63;7.73;;;23.50;54.10;;;;;;5053186;28;20561;-80
2023/09/03 05:13:07;;;;;;;8.43;7.53;;;23.50;53.80;;;;;;5052684;28;20447;-78
2023/09/03 05:15:38;;;;;;;8.17;7.27;;;23.50;54.10;;;;;;5051502;28;20950;-78
2023/09/03 05:18:06;;;;;;;8.57;7.50;;;23.40;53.80;;;;;;5051860;28;20462;-77
2023/09/03 05:20:37;;;;;;;7.77;6.97;;;23.40;54.00;;;;;;5051986;28;20443;-76
2023/09/03 05:23:06;;;;;;;8.33;7.20;;;23.40;54.00;;;;;;5051708;28;20454;-77
2023/09/03 05:25:37;;;;;;;8.60;7.23;;;23.40;54.00;;;;;;5051261;28;20492;-77
2023/09/03 05:28:07;;;;;;;7.80;6.73;;;23.50;53.90;;;;;;5051636;28;20517;-78
2023/09/03 05:30:35;;;;;;;9.13;7.20;;;23.50;54.00;;;;;;5056702;28;20450;-77
2023/09/03 05:33:03;;;;;;;7.60;6.80;;;23.50;54.10;;;;;;5056277;28;20529;-78
2023/09/03 05:35:34;;;;;;;7.80;6.37;;;23.50;54.00;;;;;;5051705;28;20446;-79
2023/09/03 05:38:03;;;;;;;8.03;7.17;;;23.50;54.00;;;;;;5050546;28;20462;-79
2023/09/03 05:40:31;;;;;;;7.00;6.30;;;23.50;53.90;;;;;;5051527;28;20538;-78
2023/09/03 05:42:59;;;;;;;10.40;6.90;;;23.50;54.00;;;;;;5050815;28;20470;-78
2023/09/03 05:45:28;;;;;;;6.00;5.40;;;23.50;54.50;;;;;;5050935;28;20474;-77
2023/09/03 05:47:57;;;;;;;6.60;5.93;;;23.40;54.10;;;;;;5056459;28;20566;-78
2023/09/03 05:50:25;;;;;;;7.97;7.00;;;23.40;53.80;;;;;;5071473;28;20513;-79
2023/09/03 05:52:53;;;;;;;7.07;6.37;;;23.50;54.10;;;;;;5071935;28;20446;-78
2023/09/03 05:55:21;;;;;;;7.37;6.33;;;23.50;54.00;;;;;;5072228;28;20533;-77
2023/09/03 05:57:49;;;;;;;7.07;6.33;;;23.50;54.00;;;;;;5071884;28;20487;-77
2023/09/03 06:00:18;;;;;;;7.07;5.93;;;23.50;54.00;;;;;;5071457;28;20541;-76
2023/09/03 06:02:48;;;;;;;6.90;6.20;;;23.50;54.00;;;;;;5070696;28;20832;-78
2023/09/03 06:05:17;;;;;;;6.73;6.03;;;23.60;54.00;;;;;;5070720;28;20445;-74
2023/09/03 06:07:45;;;;;;;6.70;6.07;;;23.50;53.80;;;;;;5070355;28;20470;-79
2023/09/03 06:10:13;;;;;;;6.60;5.90;;;23.60;53.70;;;;;;5070948;28;20446;-77
2023/09/03 06:12:41;;;;;;;6.17;5.57;;;23.60;54.00;;;;;;5070274;28;20445;-78
2023/09/03 06:15:09;;;;;;;6.53;5.43;;;23.70;53.90;;;;;;5070549;28;20446;-77
2023/09/03 06:17:37;;;;;;;6.23;5.53;;;23.70;53.80;;;;;;5070717;28;20525;-79
2023/09/03 06:20:10;;;;;;;6.40;5.80;;;23.80;54.00;;;;;;5072369;28;20412;-79
2023/09/03 06:22:38;;;;;;;5.60;5.10;;;23.80;53.60;;;;;;5073376;28;20432;-80
2023/09/03 06:25:07;;;;;;;6.03;5.43;;;23.80;53.60;;;;;;5072016;28;20433;-79
2023/09/03 06:27:39;;;;;;;6.20;5.60;;;23.80;53.50;;;;;;5072035;28;20469;-78
2023/09/03 06:30:08;;;;;;;6.83;6.13;;;23.90;53.40;;;;;;5071419;28;20416;-79
2023/09/03 06:32:36;;;;;;;6.40;5.10;;;23.90;53.50;;;;;;5072003;28;20438;-77
2023/09/03 06:35:06;;;;;;;6.07;5.13;;;24.00;53.60;;;;;;5070242;28;20420;-78
2023/09/03 06:37:34;;;;;;;5.80;5.30;;;24.10;53.40;;;;;;5070384;28;20532;-79
2023/09/03 06:40:03;;;;;;;5.83;5.33;;;24.10;53.20;;;;;;5070497;28;20445;-75
2023/09/03 06:42:31;;;;;;;5.53;5.00;;;24.10;53.00;;;;;;5069964;28;20516;-77
2023/09/03 06:44:59;;;;;;;4.80;4.40;;;24.20;53.30;;;;;;5070671;28;20472;-79
2023/09/03 06:47:28;;;;;;;5.37;4.97;;;24.20;53.10;;;;;;5071029;28;20469;-79
2023/09/03 06:49:55;;;;;;;5.40;4.90;;;24.20;53.30;;;;;;5072306;28;20437;-80
2023/09/03 06:52:25;;;;;;;5.23;4.77;;;24.20;53.00;;;;;;5074189;28;20447;-78
2023/09/03 06:54:53;;;;;;;5.10;4.60;;;24.30;53.20;;;;;;5073651;28;20448;-79
2023/09/03 06:57:22;;;;;;;5.47;4.97;;;24.20;53.20;;;;;;5074035;28;21013;-78
2023/09/03 06:59:56;;;;;;;6.73;5.07;;;24.30;53.40;;;;;;5073549;28;20467;-77
2023/09/03 07:02:25;;;;;;;5.37;4.90;;;24.30;53.20;;;;;;5073743;28;20517;-77
2023/09/03 07:04:56;;;;;;;4.93;4.53;;;24.30;53.20;;;;;;5073763;28;20815;-78
2023/09/03 07:07:25;;;;;;;5.57;5.07;;;24.30;53.30;;;;;;5073602;28;20492;-76
2023/09/03 07:09:53;;;;;;;4.90;4.50;;;24.40;53.50;;;;;;5070718;22;20486;-78
2023/09/03 07:12:21;;;;;;;4.90;4.50;;;24.40;53.20;;;;;;5052221;28;20458;-77
2023/09/03 07:14:50;;;;;;;5.50;4.43;;;24.40;53.20;;;;;;5052986;28;20463;-78
2023/09/03 07:17:18;;;;;;;5.03;4.63;;;24.40;53.20;;;;;;5055405;28;20437;-76
2023/09/03 07:19:46;;;;;;;4.87;4.50;;;24.40;52.90;;;;;;5052694;28;20453;-76
2023/09/03 07:22:14;;;;;;;5.10;4.70;;;24.50;53.10;;;;;;5053685;28;20478;-78
2023/09/03 07:24:44;;;;;;;4.40;4.10;;;24.50;53.10;;;;;;5053342;28;20462;-78
2023/09/03 07:27:12;;;;;;;4.87;4.50;;;24.50;53.10;;;;;;5053600;28;20529;-77
2023/09/03 07:29:40;;;;;;;5.03;4.63;;;24.50;53.10;;;;;;5052834;28;20525;-77
2023/09/03 07:32:08;;;;;;;5.23;4.73;;;24.60;53.10;;;;;;5053155;28;20447;-77
2023/09/03 07:34:36;;;;;;;4.43;4.07;;;24.60;53.00;;;;;;5053471;28;20435;-76
2023/09/03 07:37:05;;;;;;;4.83;4.43;;;24.60;52.90;;;;;;5053119;28;20489;-77
2023/09/03 07:39:36;;;;;;;4.23;3.93;;;24.70;53.00;;;;;;5052860;28;20450;-78
2023/09/03 07:42:06;;;;;;;4.40;4.10;;;24.70;53.00;;;;;;5053171;28;20488;-77
2023/09/03 07:44:34;;;;;;;4.90;4.50;;;24.80;53.00;;;;;;5053234;28;20480;-80
2023/09/03 07:47:02;;;;;;;4.03;3.77;;;24.80;52.90;;;;;;5053567;28;20637;-75
2023/09/03 07:49:31;;;;;;;4.53;4.13;;;24.90;52.90;;;;;;5052601;28;20478;-76
2023/09/03 07:51:59;;;;;;;4.07;3.77;;;24.90;52.90;;;;;;5051940;28;20474;-76
2023/09/03 07:54:27;;;;;;;5.13;4.27;;;24.90;53.00;;;;;;5051838;28;20544;-77
2023/09/03 07:56:55;;;;;;;4.40;4.10;;;25.00;53.00;;;;;;5052329;28;20492;-77
2023/09/03 07:59:24;;;;;;;4.47;4.07;;;25.00;53.00;;;;;;5052747;28;20455;-77
2023/09/03 08:01:53;;;;;;;4.70;4.40;;;25.10;53.00;;;;;;5051768;28;20417;-77
2023/09/03 08:04:24;;;;;;;4.07;3.73;;;25.30;52.90;;;;;;5052690;28;20481;-77
2023/09/03 08:06:52;;;;;;;4.20;3.90;;;25.40;52.70;;;;;;5052151;28;20525;-78
2023/09/03 08:09:23;;;;;;;3.70;3.50;;;25.50;52.60;;;;;;5051457;28;20489;-78
2023/09/03 08:11:52;;;;;;;3.83;3.63;;;25.70;52.60;;;;;;5051868;28;20469;-77
2023/09/03 08:14:20;;;;;;;4.03;3.73;;;25.80;52.50;;;;;;5052240;28;20533;-77
2023/09/03 08:16:49;;;;;;;3.83;3.53;;;25.90;52.30;;;;;;5051948;28;20448;-75
2023/09/03 08:19:17;;;;;;;3.77;3.53;;;26.10;52.30;;;;;;5052039;28;21007;-76
2023/09/03 08:21:47;;;;;;;3.87;3.60;;;26.20;52.00;;;;;;5052104;28;20504;-77
2023/09/03 08:24:15;;;;;;;4.40;4.10;;;26.30;51.90;;;;;;5051818;28;20430;-78
2023/09/03 08:26:43;;;;;;;3.87;3.57;;;26.50;51.70;;;;;;5052069;28;20516;-78
2023/09/03 08:29:11;;;;;;;3.93;3.63;;;26.60;51.40;;;;;;5051897;28;20474;-78
2023/09/03 08:31:40;;;;;;;3.73;3.53;;;26.70;51.40;;;;;;5051944;28;20409;-77
2023/09/03 08:34:10;;;;;;;3.53;3.33;;;26.80;51.40;;;;;;5052495;28;20424;-75
2023/09/03 08:36:38;;;;;;;4.00;3.80;;;27.00;51.40;;;;;;5052192;28;20435;-77
2023/09/03 08:39:06;;;;;;;3.57;3.37;;;27.10;51.20;;;;;;5052574;28;20513;-76
2023/09/03 08:41:34;;;;;;;3.93;3.70;;;27.20;51.00;;;;;;5052233;28;20471;-77
2023/09/03 08:44:04;;;;;;;3.70;3.50;;;27.20;50.80;;;;;;5052115;28;20525;-77
2023/09/03 08:46:33;;;;;;;3.70;3.50;;;27.20;50.80;;;;;;5052864;28;20456;-77
2023/09/03 08:49:01;;;;;;;3.40;3.20;;;27.20;50.90;;;;;;5052399;28;20462;-77
2023/09/03 08:51:31;;;;;;;3.10;3.00;;;27.30;50.90;;;;;;5051772;28;20453;-76
2023/09/03 08:53:59;;;;;;;3.00;2.87;;;27.40;51.00;;;;;;5051985;28;20467;-79
2023/09/03 08:56:28;;;;;;;3.00;2.90;;;27.60;50.90;;;;;;5051785;28;20493;-78
2023/09/03 08:58:56;;;;;;;3.17;2.97;;;27.60;50.70;;;;;;5051748;28;20473;-77
2023/09/03 09:01:24;;;;;;;2.90;2.80;;;27.70;50.60;;;;;;5051502;28;20453;-78
2023/09/03 09:03:54;;;;;;;3.00;2.90;;;27.80;50.50;;;;;;5052010;28;20421;-77
2023/09/03 09:06:22;;;;;;;3.13;3.03;;;27.90;50.60;;;;;;5051617;28;20425;-77
2023/09/03 09:08:52;;;;;;;3.23;3.03;;;28.00;50.40;;;;;;5051281;28;20565;-77
2023/09/03 09:11:20;;;;;;;3.23;3.03;;;28.10;50.20;;;;;;5051556;28;20448;-77
2023/09/03 09:13:52;;;;;;;3.40;3.20;;;28.20;50.30;;;;;;5050727;28;20504;-77
2023/09/03 09:16:20;;;;;;;2.70;2.60;;;28.30;50.10;;;;;;5051472;28;20447;-77
2023/09/03 09:18:48;;;;;;;2.93;2.80;;;28.30;49.80;;;;;;5051675;28;20541;-74
2023/09/03 09:21:17;;;;;;;3.23;3.03;;;28.30;49.90;;;;;;5054636;28;20421;-76
2023/09/03 09:23:45;;;;;;;2.97;2.87;;;28.20;49.90;;;;;;5053191;28;20469;-77
2023/09/03 09:26:18;;;;;;;2.70;2.60;;;28.20;50.10;;;;;;5051257;28;20441;-78
2023/09/03 09:28:59;;;;;;;3.30;3.10;;;28.20;50.20;;;;;;5051369;28;20469;-78
2023/09/03 09:31:29;;;;;;;2.57;2.47;;;28.30;50.40;;;;;;5051062;28;20509;-78
2023/09/03 09:33:58;;;;;;;2.70;2.60;;;28.40;50.40;;;;;;5050965;28;20443;-78
2023/09/03 09:36:26;;;;;;;2.97;2.77;;;28.60;50.20;;;;;;5051078;28;20421;-77
2023/09/03 09:38:56;;;;;;;3.27;3.10;;;28.60;49.90;;;;;;5051252;28;20437;-76
2023/09/03 09:41:26;;;;;;;2.37;2.27;;;28.80;49.90;;;;;;5051295;28;20481;-78
2023/09/03 09:43:54;;;;;;;2.70;2.60;;;29.00;49.70;;;;;;5051625;28;20446;-77
2023/09/03 09:46:29;;;;;;;2.50;2.40;;;29.10;49.30;;;;;;5052969;28;20515;-79
2023/09/03 09:48:57;;;;;;;2.63;2.53;;;29.20;49.20;;;;;;5052466;28;20454;-78
2023/09/03 09:51:26;;;;;;;2.70;2.57;;;29.10;49.20;;;;;;5052563;28;20467;-79
2023/09/03 09:53:57;;;;;;;3.30;3.10;;;29.00;49.10;;;;;;5052602;28;20405;-80
2023/09/03 09:56:31;;;;;;;2.40;2.30;;;29.00;49.20;;;;;;5052409;28;20421;-79
2023/09/03 09:58:59;;;;;;;2.37;2.27;;;29.00;49.40;;;;;;5052509;28;20531;-79
2023/09/03 10:01:28;;;;;;;2.80;2.70;;;29.00;49.30;;;;;;5052415;28;20424;-82
2023/09/03 10:03:56;;;;;;;2.70;2.60;;;29.10;49.40;;;;;;5051920;28;20484;-78
2023/09/03 10:06:26;;;;;;;2.60;2.50;;;29.10;49.20;;;;;;5051097;28;20538;-79
2023/09/03 10:08:54;;;;;;;2.40;2.30;;;29.20;49.50;;;;;;5050646;28;21006;-79
2023/09/03 10:11:23;;;;;;;2.60;2.40;;;29.50;49.40;;;;;;5051315;28;20452;-79
2023/09/03 10:13:52;;;;;;;2.37;2.27;;;29.70;49.20;;;;;;5050533;28;20504;-78
2023/09/03 10:16:21;;;;;;;2.30;2.20;;;29.90;48.80;;;;;;5051649;28;20854;-79
2023/09/03 10:18:50;;;;;;;2.50;2.40;;;30.10;48.80;;;;;;5051051;28;20500;-79
2023/09/03 10:21:20;;;;;;;2.20;2.10;;;30.20;48.40;;;;;;5051243;28;20442;-79
2023/09/03 10:23:54;;;;;;;2.40;2.30;;;30.50;48.20;;;;;;5052346;28;20541;-77
2023/09/03 10:26:24;;;;;;;2.67;2.57;;;30.50;47.70;;;;;;5054981;28;20466;-79
2023/09/03 10:28:57;;;;;;;2.40;2.30;;;30.60;47.80;;;;;;5054649;28;20485;-79
2023/09/03 10:31:26;;;;;;;2.00;1.90;;;30.70;47.60;;;;;;5055241;28;20497;-79
2023/09/03 10:33:55;;;;;;;2.10;2.07;;;30.80;47.60;;;;;;5055773;28;20529;-77
2023/09/03 10:36:23;;;;;;;2.20;2.10;;;30.90;47.60;;;;;;5055180;28;20469;-78
2023/09/03 10:38:51;;;;;;;1.80;1.77;;;31.00;47.40;;;;;;5054988;28;20563;-79
2023/09/03 10:41:21;;;;;;;1.93;1.83;;;31.20;47.20;;;;;;5055764;28;20462;-77
2023/09/03 10:43:51;;;;;;;2.00;2.00;;;31.20;46.80;;;;;;5055957;28;20442;-80
2023/09/03 10:46:21;;;;;;;2.00;1.90;;;31.20;46.80;;;;;;5055504;28;20417;-79
2023/09/03 10:48:54;;;;;;;2.57;2.37;;;31.10;46.80;;;;;;5055149;28;20491;-80
2023/09/03 10:51:36;;;;;;;2.43;2.23;;;31.20;47.20;;;;;;5054849;28;20529;-77
2023/09/03 10:54:17;;;;;;;2.47;2.37;;;31.50;47.30;;;;;;5056401;28;20432;-79
2023/09/03 10:57:16;;;;;;;2.10;2.00;;;31.60;46.70;;;;;;5055950;28;20508;-80
2023/09/03 11:00:08;;;;;;;2.43;2.33;;;31.80;46.50;;;;;;5056336;28;20492;-79
2023/09/03 11:02:38;;;;;;;2.27;2.17;;;31.70;46.10;;;;;;5056527;28;20448;-78
2023/09/03 11:05:17;;;;;;;2.40;2.30;;;31.60;46.30;;;;;;5056827;28;20493;-80
2023/09/03 11:07:46;;;;;;;2.40;2.30;;;31.50;46.40;;;;;;5058002;28;20424;-79
2023/09/03 11:10:40;;;;;;;2.30;2.20;;;31.50;46.70;;;;;;5056902;28;20539;-80
2023/09/03 11:13:12;;;;;;;2.17;2.07;;;31.60;46.60;;;;;;5059399;28;20443;-80
2023/09/03 11:15:58;;;;;;;2.10;2.10;;;31.60;46.50;;;;;;5055921;28;20435;-79
2023/09/03 11:18:28;;;;;;;1.93;1.93;;;31.70;46.60;;;;;;5057350;28;20501;-79
2023/09/03 11:20:56;;;;;;;2.07;2.00;;;31.80;46.40;;;;;;5056934;28;20488;-80
2023/09/03 11:23:27;;;;;;;2.07;1.97;;;31.80;46.20;;;;;;5056256;28;20491;-80
2023/09/03 11:26:00;;;;;;;2.27;2.17;;;31.80;46.30;;;;;;5055569;28;20848;-79
2023/09/03 11:28:29;;;;;;;2.13;2.03;;;31.90;46.50;;;;;;5055126;28;20505;-79
2023/09/03 11:30:59;;;;;;;2.10;2.00;;;32.10;46.30;;;;;;5055394;28;20478;-78
2023/09/03 11:33:29;;;;;;;2.37;2.27;;;32.10;46.00;;;;;;5057412;28;20450;-80
2023/09/03 11:35:59;;;;;;;2.40;2.30;;;32.30;46.10;;;;;;5055880;28;20466;-79
2023/09/03 11:38:28;;;;;;;2.27;2.17;;;32.40;45.80;;;;;;5057064;28;20528;-79
2023/09/03 11:40:56;;;;;;;2.63;2.53;;;32.60;45.60;;;;;;5056347;28;20431;-81
2023/09/03 11:43:24;;;;;;;2.13;2.03;;;32.80;45.40;;;;;;5055794;28;20438;-77
2023/09/03 11:45:52;;;;;;;2.30;2.20;;;33.10;44.90;;;;;;5055325;28;20430;-79
2023/09/03 11:48:24;;;;;;;2.73;2.63;;;33.30;44.70;;;;;;5056553;28;20980;-79
2023/09/03 11:50:54;;;;;;;2.10;2.00;;;33.50;44.20;;;;;;5057479;28;20487;-80
2023/09/03 11:53:23;;;;;;;1.70;1.70;;;33.80;44.20;;;;;;5057884;28;20447;-80
2023/09/03 11:55:53;;;;;;;2.23;2.17;;;34.00;43.60;;;;;;5058839;28;20484;-81
2023/09/03 11:58:22;;;;;;;2.37;2.27;;;34.00;43.10;;;;;;5057794;28;20532;-80
2023/09/03 12:00:50;;;;;;;2.00;1.90;;;34.10;43.60;;;;;;5056593;28;20443;-80
2023/09/03 12:03:19;;;;;;;1.83;1.83;;;34.10;43.40;;;;;;5055990;28;20896;-79
2023/09/03 12:05:47;;;;;;;2.03;2.03;;;34.30;43.80;;;;;;5056450;28;20413;-80
2023/09/03 12:08:19;;;;;;;1.90;1.80;;;34.50;43.10;;;;;;5056527;28;20462;-80
2023/09/03 12:10:48;;;;;;;1.77;1.77;;;34.60;42.80;;;;;;5056465;28;20474;-80
2023/09/03 12:13:32;;;;;;;1.97;1.87;;;34.80;42.60;;;;;;5056227;28;20462;-78
2023/09/03 12:16:07;;;;;;;1.40;1.40;;;35.00;42.50;;;;;;5055343;28;20451;-79
2023/09/03 12:18:36;;;;;;;1.60;1.50;;;35.10;42.30;;;;;;5055201;28;20516;-80
2023/09/03 12:21:07;;;;;;;1.77;1.77;;;35.10;42.00;;;;;;5057281;28;20441;-80
2023/09/03 12:23:37;;;;;;;1.50;1.50;;;35.40;42.00;;;;;;5056268;28;20533;-79
2023/09/03 12:26:07;;;;;;;1.67;1.67;;;35.50;41.50;;;;;;5055995;28;20533;-79
2023/09/03 12:28:37;;;;;;;1.80;1.80;;;35.50;41.40;;;;;;5055885;28;20458;-80
2023/09/03 12:31:05;;;;;;;1.60;1.60;;;35.40;41.50;;;;;;5055188;28;20506;-79
2023/09/03 12:33:48;;;;;;;2.10;2.00;;;35.40;41.80;;;;;;5054524;28;20439;-80
2023/09/03 12:36:17;;;;;;;1.67;1.67;;;35.20;42.10;;;;;;5054900;28;20965;-80
2023/09/03 12:38:54;;;;;;;1.90;1.90;;;35.20;41.80;;;;;;5055317;28;20451;-80
2023/09/03 12:41:24;;;;;;;1.67;1.67;;;35.10;41.90;;;;;;5055994;28;20488;-79
2023/09/03 12:43:52;;;;;;;1.40;1.40;;;35.00;42.20;;;;;;5056551;28;20480;-77
2023/09/03 12:46:20;;;;;;;1.67;1.57;;;35.00;42.30;;;;;;5055523;28;20473;-80
2023/09/03 12:48:49;;;;;;;1.60;1.60;;;35.10;42.50;;;;;;5054156;28;20462;-80
2023/09/03 12:51:17;;;;;;;1.77;1.77;;;35.20;42.00;;;;;;5053554;28;20494;-80
2023/09/03 12:53:47;;;;;;;1.60;1.60;;;35.30;41.90;;;;;;5054675;28;20520;-81